sensor_id;sensor_type;location;lat;lon;timestamp;pressure;altitude;pressure_sealevel;temperature;humidity
55550;BME280;41397;49.972;18.944;2023-05-23T00:01:58;101600.40;;;18.18;57.07
55550;BME280;41397;49.972;18.944;2023-05-23T00:05:01;101603.48;;;18.15;57.39
55550;BME280;41397;49.972;18.944;2023-05-23T00:08:03;101597.63;;;18.18;57.22
55550;BME280;41397;49.972;18.944;2023-05-23T00:11:05;101598.17;;;18.22;56.89
55550;BME280;41397;49.972;18.944;2023-05-23T00:14:06;101600.22;;;18.19;56.96
55550;BME280;41397;49.972;18.944;2023-05-23T00:17:09;101594.99;;;18.16;57.01
55550;BME280;41397;49.972;18.944;2023-05-23T00:20:11;101597.77;;;18.16;56.81
55550;BME280;41397;49.972;18.944;2023-05-23T00:23:13;101596.35;;;18.12;57.31
55550;BME280;41397;49.972;18.944;2023-05-23T00:26:20;101602.02;;;18.11;57.52
55550;BME280;41397;49.972;18.944;2023-05-23T00:29:21;101587.78;;;18.06;57.45
55550;BME280;41397;49.972;18.944;2023-05-23T00:32:23;101592.31;;;18.07;57.76
55550;BME280;41397;49.972;18.944;2023-05-23T00:35:25;101592.62;;;18.04;57.58
55550;BME280;41397;49.972;18.944;2023-05-23T00:38:26;101596.40;;;18.03;57.59
55550;BME280;41397;49.972;18.944;2023-05-23T00:41:29;101596.70;;;18.00;57.72
55550;BME280;41397;49.972;18.944;2023-05-23T00:44:31;101594.98;;;17.99;57.57
55550;BME280;41397;49.972;18.944;2023-05-23T00:47:32;101594.25;;;17.96;57.57
55550;BME280;41397;49.972;18.944;2023-05-23T00:50:34;101588.17;;;17.93;57.80
55550;BME280;41397;49.972;18.944;2023-05-23T00:53:36;101596.05;;;17.88;58.22
55550;BME280;41397;49.972;18.944;2023-05-23T00:56:37;101591.70;;;17.85;57.96
55550;BME280;41397;49.972;18.944;2023-05-23T00:59:39;101593.73;;;17.83;58.18
55550;BME280;41397;49.972;18.944;2023-05-23T01:02:43;101599.57;;;17.80;58.31
55550;BME280;41397;49.972;18.944;2023-05-23T01:05:45;101586.88;;;17.78;58.27
55550;BME280;41397;49.972;18.944;2023-05-23T01:08:46;101584.99;;;17.78;58.24
55550;BME280;41397;49.972;18.944;2023-05-23T01:15:09;101589.41;;;17.71;58.11
55550;BME280;41397;49.972;18.944;2023-05-23T01:18:21;101595.25;;;17.68;58.69
55550;BME280;41397;49.972;18.944;2023-05-23T01:21:24;101594.83;;;17.63;58.62
55550;BME280;41397;49.972;18.944;2023-05-23T01:24:35;101587.85;;;17.59;58.79
55550;BME280;41397;49.972;18.944;2023-05-23T01:30:57;101587.59;;;17.52;59.10
55550;BME280;41397;49.972;18.944;2023-05-23T01:33:58;101580.48;;;17.49;58.78
55550;BME280;41397;49.972;18.944;2023-05-23T01:37:00;101586.45;;;17.45;58.93
55550;BME280;41397;49.972;18.944;2023-05-23T01:40:07;101595.19;;;17.40;59.48
55550;BME280;41397;49.972;18.944;2023-05-23T01:43:09;101590.82;;;17.38;59.61
55550;BME280;41397;49.972;18.944;2023-05-23T01:46:11;101588.36;;;17.35;59.36
55550;BME280;41397;49.972;18.944;2023-05-23T01:49:14;101583.31;;;17.30;59.75
55550;BME280;41397;49.972;18.944;2023-05-23T01:52:17;101575.59;;;17.24;59.92
55550;BME280;41397;49.972;18.944;2023-05-23T01:55:21;101574.89;;;17.22;59.83
55550;BME280;41397;49.972;18.944;2023-05-23T01:58:24;101578.95;;;17.18;60.07
55550;BME280;41397;49.972;18.944;2023-05-23T02:01:25;101584.65;;;17.16;60.15
55550;BME280;41397;49.972;18.944;2023-05-23T02:04:27;101574.04;;;17.12;60.18
55550;BME280;41397;49.972;18.944;2023-05-23T02:07:28;101574.04;;;17.12;60.04
55550;BME280;41397;49.972;18.944;2023-05-23T02:10:30;101576.38;;;17.06;60.48
55550;BME280;41397;49.972;18.944;2023-05-23T02:13:32;101569.55;;;17.01;60.95
55550;BME280;41397;49.972;18.944;2023-05-23T02:16:33;101575.52;;;16.96;60.84
55550;BME280;41397;49.972;18.944;2023-05-23T02:19:36;101566.66;;;16.93;60.58
55550;BME280;41397;49.972;18.944;2023-05-23T02:22:38;101562.43;;;16.89;60.64
55550;BME280;41397;49.972;18.944;2023-05-23T02:25:39;101567.39;;;16.85;61.05
55550;BME280;41397;49.972;18.944;2023-05-23T02:28:41;101566.82;;;16.81;61.20
55550;BME280;41397;49.972;18.944;2023-05-23T02:31:42;101566.95;;;16.80;61.24
55550;BME280;41397;49.972;18.944;2023-05-23T02:34:44;101569.12;;;16.76;61.20
55550;BME280;41397;49.972;18.944;2023-05-23T02:37:50;101569.42;;;16.73;60.94
55550;BME280;41397;49.972;18.944;2023-05-23T02:40:52;101567.09;;;16.69;61.21
55550;BME280;41397;49.972;18.944;2023-05-23T02:43:53;101573.34;;;16.71;61.21
55550;BME280;41397;49.972;18.944;2023-05-23T02:46:55;101571.75;;;16.68;61.81
55550;BME280;41397;49.972;18.944;2023-05-23T02:49:57;101565.36;;;16.68;61.44
55550;BME280;41397;49.972;18.944;2023-05-23T02:52:58;101567.24;;;16.67;61.61
55550;BME280;41397;49.972;18.944;2023-05-23T02:55:59;101557.20;;;16.66;61.84
55550;BME280;41397;49.972;18.944;2023-05-23T02:59:01;101565.48;;;16.66;61.88
55550;BME280;41397;49.972;18.944;2023-05-23T03:02:03;101569.84;;;16.69;61.94
55550;BME280;41397;49.972;18.944;2023-05-23T03:05:06;101561.42;;;16.70;62.08
55550;BME280;41397;49.972;18.944;2023-05-23T03:08:07;101551.98;;;16.82;61.90
55550;BME280;41397;49.972;18.944;2023-05-23T03:11:08;101556.16;;;17.06;61.55
55550;BME280;41397;49.972;18.944;2023-05-23T03:14:10;101550.24;;;17.38;60.72
55550;BME280;41397;49.972;18.944;2023-05-23T03:17:12;101549.96;;;17.69;60.12
55550;BME280;41397;49.972;18.944;2023-05-23T03:20:13;101549.20;;;18.04;59.57
55550;BME280;41397;49.972;18.944;2023-05-23T03:23:15;101542.81;;;18.39;58.58
55550;BME280;41397;49.972;18.944;2023-05-23T03:26:17;101543.69;;;18.76;58.01
55550;BME280;41397;49.972;18.944;2023-05-23T03:29:19;101540.84;;;19.12;56.56
55550;BME280;41397;49.972;18.944;2023-05-23T03:32:20;101540.16;;;19.44;55.71
55550;BME280;41397;49.972;18.944;2023-05-23T03:35:22;101542.74;;;19.71;54.78
55550;BME280;41397;49.972;18.944;2023-05-23T03:38:23;101542.31;;;19.92;54.50
55550;BME280;41397;49.972;18.944;2023-05-23T03:41:27;101545.84;;;20.11;53.60
55550;BME280;41397;49.972;18.944;2023-05-23T03:44:28;101546.55;;;20.29;53.31
55550;BME280;41397;49.972;18.944;2023-05-23T03:47:30;101542.79;;;20.47;52.42
55550;BME280;41397;49.972;18.944;2023-05-23T03:50:31;101549.25;;;20.72;51.70
55550;BME280;41397;49.972;18.944;2023-05-23T03:53:35;101545.39;;;21.05;51.07
55550;BME280;41397;49.972;18.944;2023-05-23T03:56:36;101542.90;;;21.35;50.01
55550;BME280;41397;49.972;18.944;2023-05-23T03:59:37;101548.59;;;21.66;48.98
55550;BME280;41397;49.972;18.944;2023-05-23T04:02:39;101538.52;;;21.97;48.93
55550;BME280;41397;49.972;18.944;2023-05-23T04:05:43;101541.20;;;22.21;48.54
55550;BME280;41397;49.972;18.944;2023-05-23T04:08:44;101539.28;;;22.45;48.11
55550;BME280;41397;49.972;18.944;2023-05-23T04:11:46;101530.34;;;22.72;47.48
55550;BME280;41397;49.972;18.944;2023-05-23T04:14:47;101527.19;;;22.98;47.20
55550;BME280;41397;49.972;18.944;2023-05-23T04:17:51;101528.65;;;23.24;46.60
55550;BME280;41397;49.972;18.944;2023-05-23T04:20:52;101529.74;;;23.53;46.47
55550;BME280;41397;49.972;18.944;2023-05-23T04:23:53;101533.80;;;23.80;45.86
55550;BME280;41397;49.972;18.944;2023-05-23T04:26:56;101530.67;;;24.04;45.41
55550;BME280;41397;49.972;18.944;2023-05-23T04:30:00;101527.70;;;24.27;44.94
55550;BME280;41397;49.972;18.944;2023-05-23T04:33:02;101529.74;;;24.55;44.44
55550;BME280;41397;49.972;18.944;2023-05-23T04:36:04;101518.51;;;24.70;43.99
55550;BME280;41397;49.972;18.944;2023-05-23T04:39:09;101522.99;;;24.92;43.61
55550;BME280;41397;49.972;18.944;2023-05-23T04:42:10;101518.43;;;25.13;43.27
55550;BME280;41397;49.972;18.944;2023-05-23T04:45:11;101513.60;;;25.28;42.43
55550;BME280;41397;49.972;18.944;2023-05-23T04:48:13;101520.21;;;25.49;42.38
55550;BME280;41397;49.972;18.944;2023-05-23T04:51:17;101515.13;;;25.65;42.25
55550;BME280;41397;49.972;18.944;2023-05-23T04:54:18;101516.48;;;25.76;41.92
55550;BME280;41397;49.972;18.944;2023-05-23T04:57:19;101522.17;;;25.89;41.57
55550;BME280;41397;49.972;18.944;2023-05-23T05:00:22;101519.80;;;25.93;42.11
55550;BME280;41397;49.972;18.944;2023-05-23T05:03:24;101533.46;;;26.16;41.58
55550;BME280;41397;49.972;18.944;2023-05-23T05:06:26;101518.63;;;26.29;41.37
55550;BME280;41397;49.972;18.944;2023-05-23T05:09:29;101510.87;;;26.38;41.56
55550;BME280;41397;49.972;18.944;2023-05-23T05:12:31;101505.12;;;26.52;40.61
55550;BME280;41397;49.972;18.944;2023-05-23T05:15:34;101504.45;;;26.57;40.55
55550;BME280;41397;49.972;18.944;2023-05-23T05:18:35;101499.72;;;26.71;40.37
55550;BME280;41397;49.972;18.944;2023-05-23T05:21:37;101506.85;;;26.87;39.83
55550;BME280;41397;49.972;18.944;2023-05-23T05:24:38;101505.12;;;26.92;39.74
55550;BME280;41397;49.972;18.944;2023-05-23T05:27:41;101501.88;;;27.02;39.72
55550;BME280;41397;49.972;18.944;2023-05-23T05:30:43;101505.56;;;27.09;39.76
55550;BME280;41397;49.972;18.944;2023-05-23T05:33:46;101508.36;;;27.22;39.05
55550;BME280;41397;49.972;18.944;2023-05-23T05:36:47;101497.10;;;27.36;38.89
55550;BME280;41397;49.972;18.944;2023-05-23T05:39:48;101505.29;;;27.44;38.58
55550;BME280;41397;49.972;18.944;2023-05-23T05:42:50;101500.13;;;27.48;38.83
55550;BME280;41397;49.972;18.944;2023-05-23T05:45:51;101493.20;;;27.50;39.06
55550;BME280;41397;49.972;18.944;2023-05-23T05:48:53;101488.64;;;27.56;38.46
55550;BME280;41397;49.972;18.944;2023-05-23T05:51:54;101489.70;;;27.55;39.14
55550;BME280;41397;49.972;18.944;2023-05-23T05:54:55;101489.25;;;27.64;38.38
55550;BME280;41397;49.972;18.944;2023-05-23T05:57:57;101485.76;;;27.69;39.04
55550;BME280;41397;49.972;18.944;2023-05-23T06:00:58;101479.48;;;27.74;38.25
55550;BME280;41397;49.972;18.944;2023-05-23T06:04:00;101478.61;;;27.80;38.18
55550;BME280;41397;49.972;18.944;2023-05-23T06:07:03;101485.27;;;27.92;37.51
55550;BME280;41397;49.972;18.944;2023-05-23T06:10:06;101481.37;;;27.93;38.27
55550;BME280;41397;49.972;18.944;2023-05-23T06:13:08;101485.87;;;28.01;37.85
55550;BME280;41397;49.972;18.944;2023-05-23T06:16:10;101467.49;;;28.05;37.76
55550;BME280;41397;49.972;18.944;2023-05-23T06:19:12;101475.27;;;28.03;38.04
55550;BME280;41397;49.972;18.944;2023-05-23T06:22:13;101476.13;;;28.03;37.55
55550;BME280;41397;49.972;18.944;2023-05-23T06:25:14;101468.81;;;27.96;38.00
55550;BME280;41397;49.972;18.944;2023-05-23T06:28:16;101467.24;;;28.06;38.13
55550;BME280;41397;49.972;18.944;2023-05-23T06:31:18;101468.73;;;28.09;38.33
55550;BME280;41397;49.972;18.944;2023-05-23T06:37:35;101464.83;;;28.10;36.94
55550;BME280;41397;49.972;18.944;2023-05-23T06:40:36;101454.23;;;28.12;36.97
55550;BME280;41397;49.972;18.944;2023-05-23T06:43:37;101454.92;;;28.07;37.42
55550;BME280;41397;49.972;18.944;2023-05-23T06:46:39;101452.45;;;28.18;38.20
55550;BME280;41397;49.972;18.944;2023-05-23T06:49:40;101458.27;;;28.23;37.72
55550;BME280;41397;49.972;18.944;2023-05-23T06:52:43;101456.13;;;28.18;37.48
55550;BME280;41397;49.972;18.944;2023-05-23T06:55:46;101443.40;;;28.16;37.75
55550;BME280;41397;49.972;18.944;2023-05-23T06:58:48;101441.21;;;28.18;38.46
55550;BME280;41397;49.972;18.944;2023-05-23T07:01:49;101439.30;;;28.11;39.04
55550;BME280;41397;49.972;18.944;2023-05-23T07:04:51;101442.70;;;28.20;38.35
55550;BME280;41397;49.972;18.944;2023-05-23T07:07:53;101444.74;;;28.06;38.23
55550;BME280;41397;49.972;18.944;2023-05-23T07:10:54;101444.27;;;28.16;40.14
55550;BME280;41397;49.972;18.944;2023-05-23T07:13:55;101440.35;;;28.17;39.06
55550;BME280;41397;49.972;18.944;2023-05-23T07:16:57;101434.27;;;28.20;38.74
55550;BME280;41397;49.972;18.944;2023-05-23T07:19:58;101439.71;;;28.15;39.00
55550;BME280;41397;49.972;18.944;2023-05-23T07:23:00;101435.77;;;28.23;38.47
55550;BME280;41397;49.972;18.944;2023-05-23T07:26:01;101430.88;;;28.11;38.92
55550;BME280;41397;49.972;18.944;2023-05-23T07:29:03;101432.32;;;28.21;38.64
55550;BME280;41397;49.972;18.944;2023-05-23T07:32:06;101429.28;;;28.22;39.21
55550;BME280;41397;49.972;18.944;2023-05-23T07:35:08;101435.37;;;28.19;38.67
55550;BME280;41397;49.972;18.944;2023-05-23T07:38:09;101430.54;;;28.26;38.42
55550;BME280;41397;49.972;18.944;2023-05-23T07:41:11;101434.45;;;28.25;38.93
55550;BME280;41397;49.972;18.944;2023-05-23T07:44:12;101441.21;;;28.18;39.90
55550;BME280;41397;49.972;18.944;2023-05-23T07:47:14;101436.43;;;28.18;39.05
55550;BME280;41397;49.972;18.944;2023-05-23T07:50:16;101429.96;;;28.18;39.98
55550;BME280;41397;49.972;18.944;2023-05-23T07:53:18;101423.27;;;28.19;39.03
55550;BME280;41397;49.972;18.944;2023-05-23T07:56:19;101428.89;;;28.19;39.19
55550;BME280;41397;49.972;18.944;2023-05-23T07:59:21;101417.84;;;28.17;38.98
55550;BME280;41397;49.972;18.944;2023-05-23T08:02:23;101418.32;;;28.14;39.12
55550;BME280;41397;49.972;18.944;2023-05-23T08:05:24;101411.38;;;28.17;39.32
55550;BME280;41397;49.972;18.944;2023-05-23T08:08:26;101416.34;;;28.21;39.45
55550;BME280;41397;49.972;18.944;2023-05-23T08:11:27;101409.97;;;28.32;38.21
55550;BME280;41397;49.972;18.944;2023-05-23T08:14:30;101413.85;;;28.31;37.97
55550;BME280;41397;49.972;18.944;2023-05-23T08:17:31;101411.45;;;28.35;38.63
55550;BME280;41397;49.972;18.944;2023-05-23T08:20:33;101417.09;;;28.35;37.87
55550;BME280;41397;49.972;18.944;2023-05-23T08:23:34;101410.25;;;28.24;37.70
55550;BME280;41397;49.972;18.944;2023-05-23T08:26:35;101422.80;;;28.22;37.19
55550;BME280;41397;49.972;18.944;2023-05-23T08:29:37;101413.52;;;28.21;38.36
55550;BME280;41397;49.972;18.944;2023-05-23T08:32:40;101415.86;;;28.24;38.69
55550;BME280;41397;49.972;18.944;2023-05-23T08:35:41;101406.91;;;28.34;37.26
55550;BME280;41397;49.972;18.944;2023-05-23T08:38:43;101411.60;;;28.47;37.37
55550;BME280;41397;49.972;18.944;2023-05-23T08:41:44;101404.26;;;28.46;37.64
55550;BME280;41397;49.972;18.944;2023-05-23T08:44:48;101402.24;;;28.53;37.49
55550;BME280;41397;49.972;18.944;2023-05-23T08:47:51;101392.76;;;28.47;37.17
55550;BME280;41397;49.972;18.944;2023-05-23T08:50:54;101406.19;;;28.45;37.07
55550;BME280;41397;49.972;18.944;2023-05-23T08:53:56;101398.43;;;28.41;37.50
55550;BME280;41397;49.972;18.944;2023-05-23T08:56:58;101402.77;;;28.37;36.92
55550;BME280;41397;49.972;18.944;2023-05-23T09:00:01;101408.19;;;28.38;36.80
55550;BME280;41397;49.972;18.944;2023-05-23T09:03:12;101402.52;;;28.45;35.83
55550;BME280;41397;49.972;18.944;2023-05-23T09:06:14;101402.95;;;28.48;35.90
55550;BME280;41397;49.972;18.944;2023-05-23T09:09:18;101404.52;;;28.38;36.73
55550;BME280;41397;49.972;18.944;2023-05-23T09:12:25;101400.60;;;28.39;35.39
55550;BME280;41397;49.972;18.944;2023-05-23T09:15:27;101392.76;;;28.47;35.29
55550;BME280;41397;49.972;18.944;2023-05-23T09:18:37;101390.89;;;28.34;35.27
55550;BME280;41397;49.972;18.944;2023-05-23T09:21:43;101388.31;;;28.33;35.07
55550;BME280;41397;49.972;18.944;2023-05-23T09:24:44;101394.32;;;28.43;36.02
55550;BME280;41397;49.972;18.944;2023-05-23T09:27:51;101392.76;;;28.47;35.21
55550;BME280;41397;49.972;18.944;2023-05-23T09:31:03;101380.83;;;28.52;33.86
55550;BME280;41397;49.972;18.944;2023-05-23T09:34:06;101389.66;;;28.55;35.14
55550;BME280;41397;49.972;18.944;2023-05-23T09:37:11;101381.00;;;28.57;34.39
55550;BME280;41397;49.972;18.944;2023-05-23T09:40:19;101381.05;;;28.50;34.52
55550;BME280;41397;49.972;18.944;2023-05-23T09:43:21;101384.03;;;28.55;34.51
55550;BME280;41397;49.972;18.944;2023-05-23T09:46:28;101387.88;;;28.61;33.96
55550;BME280;41397;49.972;18.944;2023-05-23T09:49:32;101385.06;;;28.61;34.42
55550;BME280;41397;49.972;18.944;2023-05-23T09:52:37;101370.95;;;28.68;33.72
55550;BME280;41397;49.972;18.944;2023-05-23T09:55:39;101379.85;;;28.65;33.19
55550;BME280;41397;49.972;18.944;2023-05-23T09:58:47;101365.01;;;28.76;33.61
55550;BME280;41397;49.972;18.944;2023-05-23T10:01:50;101361.90;;;28.84;33.06
55550;BME280;41397;49.972;18.944;2023-05-23T10:04:54;101368.30;;;28.91;33.82
55550;BME280;41397;49.972;18.944;2023-05-23T10:08:00;101359.94;;;28.85;35.31
55550;BME280;41397;49.972;18.944;2023-05-23T10:14:21;101359.54;;;28.99;36.04
55550;BME280;41397;49.972;18.944;2023-05-23T10:17:33;101340.94;;;28.98;34.12
55550;BME280;41397;49.972;18.944;2023-05-23T10:20:39;101350.55;;;28.91;33.56
55550;BME280;41397;49.972;18.944;2023-05-23T10:23:44;101344.32;;;29.07;33.97
55550;BME280;41397;49.972;18.944;2023-05-23T10:26:47;101345.72;;;29.16;32.75
55550;BME280;41397;49.972;18.944;2023-05-23T10:29:53;101338.00;;;29.12;31.96
55550;BME280;41397;49.972;18.944;2023-05-23T10:32:55;101335.34;;;29.17;32.95
55550;BME280;41397;49.972;18.944;2023-05-23T10:36:07;101325.84;;;29.30;32.56
55550;BME280;41397;49.972;18.944;2023-05-23T10:39:20;101330.29;;;29.37;32.64
55550;BME280;41397;49.972;18.944;2023-05-23T10:42:36;101335.87;;;29.26;32.07
55550;BME280;41397;49.972;18.944;2023-05-23T10:45:41;101337.73;;;29.32;32.38
55550;BME280;41397;49.972;18.944;2023-05-23T10:48:43;101328.81;;;29.35;32.71
55550;BME280;41397;49.972;18.944;2023-05-23T10:51:50;101321.52;;;29.46;33.35
55550;BME280;41397;49.972;18.944;2023-05-23T10:54:53;101315.88;;;29.46;31.74
55550;BME280;41397;49.972;18.944;2023-05-23T11:01:14;101308.35;;;29.58;32.29
55550;BME280;41397;49.972;18.944;2023-05-23T11:04:26;101311.30;;;29.63;32.38
55550;BME280;41397;49.972;18.944;2023-05-23T11:07:31;101308.05;;;29.66;32.51
55550;BME280;41397;49.972;18.944;2023-05-23T11:20:13;101278.74;;;29.67;33.83
55550;BME280;41397;49.972;18.944;2023-05-23T11:23:18;101283.05;;;29.81;35.04
55550;BME280;41397;49.972;18.944;2023-05-23T11:26:30;101274.39;;;29.95;35.41
55550;BME280;41397;49.972;18.944;2023-05-23T11:29:36;101277.21;;;30.06;34.53
55550;BME280;41397;49.972;18.944;2023-05-23T11:32:38;101271.70;;;30.12;34.73
55550;BME280;41397;49.972;18.944;2023-05-23T11:35:44;101269.15;;;30.22;35.41
55550;BME280;41397;49.972;18.944;2023-05-23T11:38:49;101273.24;;;30.26;35.58
55550;BME280;41397;49.972;18.944;2023-05-23T11:41:59;101270.03;;;30.22;35.22
55550;BME280;41397;49.972;18.944;2023-05-23T11:45:02;101269.63;;;30.19;35.93
55550;BME280;41397;49.972;18.944;2023-05-23T11:48:08;101279.44;;;30.16;36.12
55550;BME280;41397;49.972;18.944;2023-05-23T11:51:13;101272.32;;;30.14;36.36
55550;BME280;41397;49.972;18.944;2023-05-23T11:54:15;101274.79;;;30.10;36.49
55550;BME280;41397;49.972;18.944;2023-05-23T11:57:16;101275.50;;;30.05;36.51
55550;BME280;41397;49.972;18.944;2023-05-23T12:00:18;101275.15;;;30.02;37.07
55550;BME280;41397;49.972;18.944;2023-05-23T12:03:20;101263.10;;;29.95;37.56
55550;BME280;41397;49.972;18.944;2023-05-23T12:06:22;101265.07;;;29.94;37.41
55550;BME280;41397;49.972;18.944;2023-05-23T12:09:24;101250.60;;;29.91;38.47
55550;BME280;41397;49.972;18.944;2023-05-23T12:12:26;101251.95;;;29.88;37.99
55550;BME280;41397;49.972;18.944;2023-05-23T12:15:29;101250.48;;;29.85;37.78
55550;BME280;41397;49.972;18.944;2023-05-23T12:18:32;101256.11;;;29.85;38.38
55550;BME280;41397;49.972;18.944;2023-05-23T12:21:40;101269.59;;;29.83;37.77
55550;BME280;41397;49.972;18.944;2023-05-23T12:24:45;101300.95;;;29.75;38.38
55550;BME280;41397;49.972;18.944;2023-05-23T12:27:49;101310.05;;;29.59;38.71
55550;BME280;41397;49.972;18.944;2023-05-23T12:30:51;101323.65;;;29.32;38.52
55550;BME280;41397;49.972;18.944;2023-05-23T12:33:52;101332.11;;;29.13;38.66
55550;BME280;41397;49.972;18.944;2023-05-23T12:36:58;101339.38;;;28.84;38.73
55550;BME280;41397;49.972;18.944;2023-05-23T12:40:12;101359.52;;;28.63;39.33
55550;BME280;41397;49.972;18.944;2023-05-23T12:43:14;101385.42;;;28.46;39.47
55550;BME280;41397;49.972;18.944;2023-05-23T12:46:20;101395.72;;;28.27;40.37
55550;BME280;41397;49.972;18.944;2023-05-23T12:49:22;101393.34;;;27.99;40.75
55550;BME280;41397;49.972;18.944;2023-05-23T12:52:28;101399.91;;;27.80;41.63
55550;BME280;41397;49.972;18.944;2023-05-23T12:55:32;101390.06;;;27.57;43.71
55550;BME280;41397;49.972;18.944;2023-05-23T12:58:34;101382.79;;;27.43;44.38
55550;BME280;41397;49.972;18.944;2023-05-23T13:01:35;101383.29;;;27.27;46.06
55550;BME280;41397;49.972;18.944;2023-05-23T13:04:37;101393.89;;;27.11;44.37
55550;BME280;41397;49.972;18.944;2023-05-23T13:07:38;101380.08;;;27.10;44.07
55550;BME280;41397;49.972;18.944;2023-05-23T13:10:39;101384.80;;;27.16;43.72
55550;BME280;41397;49.972;18.944;2023-05-23T13:13:41;101383.09;;;27.15;45.15
55550;BME280;41397;49.972;18.944;2023-05-23T13:16:43;101381.14;;;27.15;43.91
55550;BME280;41397;49.972;18.944;2023-05-23T13:19:45;101381.59;;;27.19;43.23
55550;BME280;41397;49.972;18.944;2023-05-23T13:22:47;101382.00;;;27.22;43.39
55550;BME280;41397;49.972;18.944;2023-05-23T13:25:49;101379.18;;;27.22;42.77
55550;BME280;41397;49.972;18.944;2023-05-23T13:28:51;101383.50;;;27.25;42.88
55550;BME280;41397;49.972;18.944;2023-05-23T13:31:52;101383.95;;;27.22;43.46
55550;BME280;41397;49.972;18.944;2023-05-23T13:34:54;101384.39;;;27.19;43.30
55550;BME280;41397;49.972;18.944;2023-05-23T13:37:55;101377.48;;;27.15;43.50
55550;BME280;41397;49.972;18.944;2023-05-23T13:40:59;101377.70;;;27.13;43.58
55550;BME280;41397;49.972;18.944;2023-05-23T13:44:00;101382.88;;;27.10;43.19
55550;BME280;41397;49.972;18.944;2023-05-23T13:47:11;101388.30;;;27.05;43.79
55550;BME280;41397;49.972;18.944;2023-05-23T13:50:13;101384.20;;;27.00;43.93
55550;BME280;41397;49.972;18.944;2023-05-23T13:53:14;101382.06;;;26.96;44.63
55550;BME280;41397;49.972;18.944;2023-05-23T13:56:17;101389.84;;;26.94;45.12
55550;BME280;41397;49.972;18.944;2023-05-23T13:59:18;101382.91;;;26.90;44.92
55550;BME280;41397;49.972;18.944;2023-05-23T14:02:22;101393.09;;;26.84;44.87
55550;BME280;41397;49.972;18.944;2023-05-23T14:05:23;101382.76;;;26.71;46.53
55550;BME280;41397;49.972;18.944;2023-05-23T14:08:33;101379.52;;;26.54;49.19
55550;BME280;41397;49.972;18.944;2023-05-23T14:11:35;101376.69;;;26.48;51.80
55550;BME280;41397;49.972;18.944;2023-05-23T14:14:36;101379.52;;;26.41;50.08
55550;BME280;41397;49.972;18.944;2023-05-23T14:17:38;101369.36;;;26.27;50.32
55550;BME280;41397;49.972;18.944;2023-05-23T14:20:41;101384.24;;;26.21;50.57
55550;BME280;41397;49.972;18.944;2023-05-23T14:23:42;101383.36;;;26.13;51.03
55550;BME280;41397;49.972;18.944;2023-05-23T14:26:43;101380.15;;;26.03;51.74
55550;BME280;41397;49.972;18.944;2023-05-23T14:29:47;101378.34;;;25.82;56.05
55550;BME280;41397;49.972;18.944;2023-05-23T14:32:49;101370.98;;;25.68;57.03
55550;BME280;41397;49.972;18.944;2023-05-23T14:35:51;101367.09;;;25.62;56.17
55550;BME280;41397;49.972;18.944;2023-05-23T14:38:52;101359.73;;;25.55;56.62
55550;BME280;41397;49.972;18.944;2023-05-23T14:41:55;101353.46;;;25.46;56.29
55550;BME280;41397;49.972;18.944;2023-05-23T14:44:56;101355.17;;;25.40;56.35
55550;BME280;41397;49.972;18.944;2023-05-23T14:47:58;101343.27;;;25.32;54.88
55550;BME280;41397;49.972;18.944;2023-05-23T14:50:59;101355.73;;;25.22;56.72
55550;BME280;41397;49.972;18.944;2023-05-23T14:54:04;101358.51;;;25.16;56.21
55550;BME280;41397;49.972;18.944;2023-05-23T14:57:06;101362.83;;;25.18;56.05
55550;BME280;41397;49.972;18.944;2023-05-23T15:00:10;101358.51;;;25.16;56.27
55550;BME280;41397;49.972;18.944;2023-05-23T15:03:13;101349.03;;;25.17;56.46
55550;BME280;41397;49.972;18.944;2023-05-23T15:06:15;101349.23;;;25.15;57.22
55550;BME280;41397;49.972;18.944;2023-05-23T15:09:17;101354.15;;;25.13;58.31
55550;BME280;41397;49.972;18.944;2023-05-23T15:12:19;101355.20;;;25.12;58.01
55550;BME280;41397;49.972;18.944;2023-05-23T15:15:21;101347.23;;;25.09;57.42
55550;BME280;41397;49.972;18.944;2023-05-23T15:18:23;101356.71;;;25.08;57.68
55550;BME280;41397;49.972;18.944;2023-05-23T15:21:25;101353.54;;;25.18;58.24
55550;BME280;41397;49.972;18.944;2023-05-23T15:24:26;101341.36;;;25.32;57.59
55550;BME280;41397;49.972;18.944;2023-05-23T15:27:28;101339.42;;;25.39;57.56
55550;BME280;41397;49.972;18.944;2023-05-23T15:30:30;101339.89;;;25.43;56.39
55550;BME280;41397;49.972;18.944;2023-05-23T15:33:35;101338.18;;;25.49;56.61
55550;BME280;41397;49.972;18.944;2023-05-23T15:36:38;101350.91;;;25.58;55.88
55550;BME280;41397;49.972;18.944;2023-05-23T15:39:40;101345.73;;;25.61;55.44
55550;BME280;41397;49.972;18.944;2023-05-23T15:42:42;101349.00;;;25.65;55.90
55550;BME280;41397;49.972;18.944;2023-05-23T15:45:44;101344.88;;;25.61;55.48
55550;BME280;41397;49.972;18.944;2023-05-23T15:48:45;101349.19;;;25.63;56.77
55550;BME280;41397;49.972;18.944;2023-05-23T15:51:46;101342.73;;;25.69;55.26
55550;BME280;41397;49.972;18.944;2023-05-23T15:54:48;101343.20;;;25.73;56.00
55550;BME280;41397;49.972;18.944;2023-05-23T15:57:50;101342.76;;;25.76;54.43
55550;BME280;41397;49.972;18.944;2023-05-23T16:00:52;101343.20;;;25.80;55.51
55550;BME280;41397;49.972;18.944;2023-05-23T16:03:53;101334.36;;;25.83;55.76
55550;BME280;41397;49.972;18.944;2023-05-23T16:06:55;101326.21;;;25.88;55.65
55550;BME280;41397;49.972;18.944;2023-05-23T16:09:56;101330.33;;;25.92;55.96